createdAt,value
2019-04-09T00:02:27.298Z,48.83
2019-04-09T00:04:55.867Z,48.68
2019-04-09T00:07:23.607Z,43.92
2019-04-09T00:09:52.021Z,49.37
2019-04-09T00:12:20.421Z,49.10
2019-04-09T00:14:48.870Z,49.07
2019-04-09T00:17:17.618Z,47.60
2019-04-09T00:19:46.443Z,50.05
2019-04-09T00:22:15.102Z,52.13
2019-04-09T00:24:43.515Z,51.23
2019-04-09T00:27:11.958Z,44.90
2019-04-09T00:29:40.589Z,46.68
2019-04-09T00:32:09.905Z,48.52
2019-04-09T00:34:38.415Z,49.73
2019-04-09T00:37:07.085Z,50.78
2019-04-09T00:39:35.748Z,45.48
2019-04-09T00:42:04.781Z,49.65
2019-04-09T00:44:33.625Z,49.33
2019-04-09T00:47:02.346Z,48.35
2019-04-09T00:49:31.875Z,46.28
2019-04-09T00:52:00.400Z,50.03
2019-04-09T00:54:29.655Z,53.28
2019-04-09T00:57:03.338Z,49.20
2019-04-09T00:59:28.397Z,49.05
2019-04-09T01:01:57.100Z,45.03
2019-04-09T01:04:26.035Z,49.10
2019-04-09T01:06:54.520Z,46.20
2019-04-09T01:09:23.049Z,41.55
2019-04-09T01:11:52.676Z,49.30
2019-04-09T01:14:21.915Z,50.65
2019-04-09T01:16:50.768Z,54.80
2019-04-09T01:19:21.430Z,51.63
2019-04-09T01:21:49.968Z,53.40
2019-04-09T01:24:27.875Z,53.63
2019-04-09T01:26:51.245Z,51.25
2019-04-09T01:29:22.933Z,56.60
2019-04-09T01:31:58.878Z,53.15
2019-04-09T01:34:31.741Z,55.28
2019-04-09T01:37:11.098Z,53.08
2019-04-09T01:39:57.517Z,55.88
2019-04-09T01:45:06.187Z,54.27
2019-04-09T01:47:51.542Z,52.40
2019-04-09T01:50:33.493Z,58.28
2019-04-09T01:53:07.328Z,46.63
2019-04-09T01:55:49.610Z,51.18
2019-04-09T01:58:25.783Z,48.75
2019-04-09T02:00:56.738Z,54.20
2019-04-09T02:03:29.889Z,49.83
2019-04-09T02:06:08.982Z,45.67
2019-04-09T02:08:48.788Z,48.50
2019-04-09T02:11:24.985Z,46.63
2019-04-09T02:13:58.738Z,43.40
2019-04-09T02:16:35.071Z,45.90
2019-04-09T02:19:05.149Z,52.05
2019-04-09T02:21:41.448Z,44.20
2019-04-09T02:24:28.648Z,46.65
2019-04-09T02:27:17.118Z,44.70
2019-04-09T02:29:50.105Z,48.30
2019-04-09T02:32:32.488Z,48.78
2019-04-09T02:35:12.958Z,45.30
2019-04-09T02:37:55.477Z,44.60
2019-04-09T02:40:25.615Z,43.98
2019-04-09T02:43:12.770Z,44.85
2019-04-09T02:45:45.765Z,40.45
2019-04-09T02:48:25.473Z,41.35
2019-04-09T02:51:01.777Z,40.75
2019-04-09T02:53:32.919Z,41.00
2019-04-09T02:56:20.991Z,40.38
2019-04-09T02:58:56.889Z,42.13
2019-04-09T03:01:42.913Z,38.23
2019-04-09T03:04:22.594Z,42.45
2019-04-09T03:07:07.704Z,44.58
2019-04-09T03:09:54.105Z,43.35
2019-04-09T03:12:31.280Z,45.78
2019-04-09T03:15:17.882Z,42.85
2019-04-09T03:17:50.704Z,41.05
2019-04-09T03:20:26.606Z,43.05
2019-04-09T03:23:08.818Z,41.10
2019-04-09T03:25:44.863Z,41.73
2019-04-09T03:28:30.953Z,41.68
2019-04-09T03:31:11.549Z,49.25
2019-04-09T03:33:43.538Z,48.45
2019-04-09T03:36:14.559Z,45.83
2019-04-09T03:38:51.061Z,41.10
2019-04-09T03:41:30.583Z,39.90
2019-04-09T03:44:02.426Z,43.20
2019-04-09T03:46:32.549Z,42.33
2019-04-09T03:49:05.294Z,40.50
2019-04-09T03:51:41.781Z,45.20
2019-04-09T03:54:30.755Z,46.02
2019-04-09T03:57:13.189Z,42.67
2019-04-09T03:59:43.526Z,43.65
2019-04-09T04:02:31.994Z,41.70
2019-04-09T04:05:02.034Z,43.20
2019-04-09T04:07:52.522Z,40.65
2019-04-09T04:10:41.071Z,39.18
2019-04-09T04:13:26.754Z,40.28
2019-04-09T04:16:04.362Z,46.23
2019-04-09T04:18:34.593Z,43.02
2019-04-09T04:21:21.425Z,44.90
2019-04-09T04:24:07.903Z,44.05
2019-04-09T04:26:53.277Z,44.67
2019-04-09T04:29:23.500Z,44.03
2019-04-09T04:31:56.069Z,40.23
2019-04-09T04:34:32.123Z,41.08
2019-04-09T04:37:10.957Z,39.70
2019-04-09T04:39:53.267Z,43.90
2019-04-09T04:42:23.573Z,44.63
2019-04-09T04:45:02.346Z,42.80
2019-04-09T04:47:48.941Z,42.05
2019-04-09T04:50:37.070Z,38.48
2019-04-09T04:53:10.506Z,41.37
2019-04-09T04:55:59.489Z,42.38
2019-04-09T04:58:42.121Z,42.23
2019-04-09T05:01:10.125Z,43.92
2019-04-09T05:03:42.898Z,47.80
2019-04-09T05:06:13.614Z,45.15
2019-04-09T05:08:46.378Z,41.60
2019-04-09T05:11:16.714Z,47.73
2019-04-09T05:13:55.652Z,47.70
2019-04-09T05:16:25.702Z,47.40
2019-04-09T05:18:58.657Z,41.00
2019-04-09T05:21:40.911Z,42.43
2019-04-09T05:24:11.140Z,42.50
2019-04-09T05:26:42.171Z,42.33
2019-04-09T05:29:12.287Z,39.00
2019-04-09T05:31:43.275Z,39.88
2019-04-09T05:34:29.833Z,41.28
2019-04-09T05:37:00.419Z,44.77
2019-04-09T05:39:46.936Z,42.08
2019-04-09T05:42:17.188Z,42.60
2019-04-09T05:44:47.465Z,42.80
2019-04-09T05:47:24.145Z,41.85
2019-04-09T05:49:54.311Z,42.88
2019-04-09T05:52:27.178Z,43.55
2019-04-09T05:54:58.056Z,41.28
2019-04-09T05:57:43.115Z,39.60
2019-04-09T06:00:13.682Z,41.00
2019-04-09T06:02:59.802Z,40.52
2019-04-09T06:05:40.626Z,43.28
2019-04-09T06:08:10.755Z,40.45
2019-04-09T06:10:39.422Z,40.45
2019-04-09T06:13:07.840Z,42.70
2019-04-09T06:15:37.144Z,40.85
2019-04-09T06:18:05.946Z,38.25
2019-04-09T06:20:34.397Z,42.00
2019-04-09T06:23:02.825Z,42.87
2019-04-09T06:25:31.535Z,42.17
2019-04-09T06:28:00.036Z,41.57
2019-04-09T06:30:29.316Z,42.97
2019-04-09T06:33:05.923Z,44.50
2019-04-09T06:35:36.146Z,43.83
2019-04-09T06:38:18.885Z,42.80
2019-04-09T06:41:04.321Z,43.50
2019-04-09T06:43:37.953Z,41.83
2019-04-09T06:46:20.122Z,42.83
2019-04-09T06:48:53.485Z,44.90
2019-04-09T06:51:32.389Z,43.17
2019-04-09T06:53:58.030Z,44.00
2019-04-09T06:56:31.603Z,47.67
2019-04-09T06:59:01.750Z,50.93
2019-04-09T07:01:35.087Z,47.87
2019-04-09T07:04:15.309Z,47.30
2019-04-09T07:07:01.776Z,45.80
2019-04-09T07:09:41.215Z,47.60
2019-04-09T07:12:11.367Z,48.20
2019-04-09T07:14:44.123Z,52.17
2019-04-09T07:17:32.665Z,53.47
2019-04-09T07:20:07.971Z,54.70
2019-04-09T07:22:40.324Z,51.03
2019-04-09T07:25:22.701Z,53.77
2019-04-09T07:27:55.541Z,54.90
2019-04-09T07:30:32.035Z,54.87
2019-04-09T07:33:11.736Z,55.10
2019-04-09T07:35:55.444Z,54.03
2019-04-09T07:38:25.502Z,53.90
2019-04-09T07:41:12.253Z,54.07
2019-04-09T07:43:48.701Z,55.50
2019-04-09T07:46:20.359Z,58.43
2019-04-09T07:48:58.514Z,54.30
2019-04-09T07:51:48.192Z,59.90
2019-04-09T07:54:31.095Z,57.30
2019-04-09T07:57:12.405Z,57.07
2019-04-09T07:59:43.212Z,54.10
2019-04-09T08:02:30.550Z,57.90
2019-04-09T08:05:15.228Z,58.90
2019-04-09T08:07:44.563Z,55.47
2019-04-09T08:10:32.621Z,59.27
2019-04-09T08:13:03.545Z,57.00
2019-04-09T08:15:46.055Z,55.13
2019-04-09T08:18:21.672Z,56.50
2019-04-09T08:21:01.232Z,56.00
2019-04-09T08:23:37.682Z,53.30
2019-04-09T08:26:08.553Z,54.97
2019-04-09T08:28:39.675Z,54.47
2019-04-09T08:31:15.055Z,53.60
2019-04-09T08:34:00.992Z,52.40
2019-04-09T08:36:45.892Z,49.70
2019-04-09T08:39:12.649Z,47.30
2019-04-09T08:41:46.538Z,48.47
2019-04-09T08:44:25.703Z,46.70
2019-04-09T08:47:00.533Z,45.43
2019-04-09T08:49:39.425Z,45.10
2019-04-09T08:52:12.589Z,40.40
2019-04-09T08:54:53.330Z,42.97
2019-04-09T08:57:23.105Z,41.87
2019-04-09T08:59:59.498Z,42.63
2019-04-09T09:02:47.059Z,41.47
2019-04-09T09:05:18.021Z,45.20
2019-04-09T09:07:52.841Z,40.03
2019-04-09T09:10:25.455Z,43.67
2019-04-09T09:13:15.300Z,39.60
2019-04-09T09:15:54.305Z,41.40
2019-04-09T09:18:24.466Z,41.97
2019-04-09T09:20:57.583Z,42.07
2019-04-09T09:23:36.993Z,40.37
2019-04-09T09:26:19.806Z,38.13
2019-04-09T09:28:56.109Z,36.93
2019-04-09T09:31:42.965Z,40.40
2019-04-09T09:34:28.966Z,42.87
2019-04-09T09:37:15.674Z,43.10
2019-04-09T09:39:47.210Z,41.90
2019-04-09T09:42:34.107Z,39.73
2019-04-09T09:45:05.589Z,37.63
2019-04-09T09:47:47.615Z,39.33
2019-04-09T09:50:24.332Z,38.83
2019-04-09T09:53:08.961Z,39.13
2019-04-09T09:55:39.082Z,37.63
2019-04-09T09:58:21.272Z,39.40
2019-04-09T10:01:08.089Z,38.30
2019-04-09T10:03:49.741Z,37.97
2019-04-09T10:06:29.178Z,40.00
2019-04-09T10:09:08.372Z,40.07
2019-04-09T10:11:40.995Z,37.97
2019-04-09T10:14:11.878Z,39.83
2019-04-09T10:16:48.775Z,38.60
2019-04-09T10:19:30.224Z,37.70
2019-04-09T10:22:04.308Z,34.30
2019-04-09T10:24:38.090Z,36.53
2019-04-09T10:27:18.491Z,34.67
2019-04-09T10:30:07.580Z,34.40
2019-04-09T10:32:44.141Z,31.90
2019-04-09T10:35:34.149Z,31.50
2019-04-09T10:38:03.297Z,33.10
2019-04-09T10:40:50.736Z,35.30
2019-04-09T10:43:33.862Z,34.43
2019-04-09T10:46:04.580Z,30.50
2019-04-09T10:48:34.866Z,30.07
2019-04-09T10:51:06.161Z,31.10
2019-04-09T10:53:39.681Z,30.10
2019-04-09T10:56:20.344Z,31.27
2019-04-09T10:58:55.490Z,31.77
2019-04-09T11:01:49.626Z,27.77
2019-04-09T11:04:31.621Z,25.57
2019-04-09T11:07:10.714Z,24.60
2019-04-09T11:09:41.060Z,25.40
2019-04-09T11:12:18.359Z,24.43
2019-04-09T11:14:55.801Z,23.73
2019-04-09T11:17:35.198Z,24.27
2019-04-09T11:20:20.527Z,23.73
2019-04-09T11:22:55.756Z,22.67
2019-04-09T11:25:45.574Z,20.53
2019-04-09T11:28:26.235Z,22.00
2019-04-09T11:30:56.278Z,21.50
2019-04-09T11:33:35.957Z,21.10
2019-04-09T11:36:19.003Z,21.37
2019-04-09T11:38:54.795Z,23.63
2019-04-09T11:41:44.342Z,24.00
2019-04-09T11:44:17.243Z,26.00
2019-04-09T11:47:05.551Z,24.03
2019-04-09T11:49:34.451Z,24.13
2019-04-09T11:52:20.594Z,24.30
2019-04-09T11:55:03.186Z,23.30
2019-04-09T11:57:49.990Z,25.03
2019-04-09T12:00:23.762Z,26.50
2019-04-09T12:03:00.911Z,26.67
2019-04-09T12:05:40.617Z,25.77
2019-04-09T12:08:19.570Z,24.90
2019-04-09T12:10:52.421Z,24.07
2019-04-09T12:13:25.226Z,24.40
2019-04-09T12:16:04.787Z,23.97
2019-04-09T12:18:35.775Z,25.77
2019-04-09T12:21:22.014Z,25.33
2019-04-09T12:24:04.962Z,23.33
2019-04-09T12:26:35.182Z,25.53
2019-04-09T12:29:19.122Z,23.60
2019-04-09T12:31:56.678Z,22.80
2019-04-09T12:34:43.357Z,23.40
2019-04-09T12:37:25.770Z,22.53
2019-04-09T12:40:00.181Z,23.70
2019-04-09T12:42:48.563Z,22.17
2019-04-09T12:45:21.165Z,23.10
2019-04-09T12:47:57.050Z,24.33
2019-04-09T12:50:42.513Z,22.20
2019-04-09T12:53:18.589Z,23.77
2019-04-09T12:55:48.808Z,24.60
2019-04-09T12:58:35.041Z,29.10
2019-04-09T13:01:05.082Z,36.00
2019-04-09T13:03:40.968Z,36.33
2019-04-09T13:06:29.619Z,36.67
2019-04-09T13:09:02.269Z,37.47
2019-04-09T13:11:32.741Z,39.20
2019-04-09T13:14:08.965Z,39.97
2019-04-09T13:16:55.678Z,41.67
2019-04-09T13:19:35.585Z,43.93
2019-04-09T13:22:23.820Z,42.83
2019-04-09T13:25:00.949Z,46.50
2019-04-09T13:27:34.553Z,47.70
2019-04-09T13:30:09.412Z,44.07
2019-04-09T13:32:54.801Z,43.83
2019-04-09T13:35:37.126Z,43.60
2019-04-09T13:38:21.397Z,45.03
2019-04-09T13:40:51.615Z,43.63
2019-04-09T13:43:27.467Z,43.57
2019-04-09T13:45:58.174Z,43.97
2019-04-09T13:48:28.274Z,42.03
2019-04-09T13:51:01.402Z,43.00
2019-04-09T13:53:30.975Z,38.60
2019-04-09T13:55:59.418Z,39.53
2019-04-09T13:58:28.717Z,34.00
2019-04-09T14:00:58.524Z,33.00
2019-04-09T14:03:35.504Z,29.40
2019-04-09T14:05:59.022Z,25.70
2019-04-09T14:08:27.481Z,19.50
2019-04-09T14:10:58.589Z,20.67
2019-04-09T14:13:26.274Z,19.67
2019-04-09T14:15:54.689Z,18.10
2019-04-09T14:18:23.101Z,17.07
2019-04-09T14:20:51.824Z,18.63
2019-04-09T14:23:20.309Z,17.40
2019-04-09T14:25:49.770Z,17.33
2019-04-09T14:28:28.226Z,18.53
2019-04-09T14:30:58.755Z,15.97
2019-04-09T14:33:27.314Z,15.87
2019-04-09T14:35:56.163Z,16.73
2019-04-09T14:38:24.730Z,15.57
2019-04-09T14:40:53.140Z,16.83
2019-04-09T14:43:21.569Z,15.60
2019-04-09T14:45:50.945Z,16.03
2019-04-09T14:48:19.589Z,16.23
2019-04-09T14:50:48.342Z,19.50
2019-04-09T14:53:16.906Z,16.50
2019-04-09T14:55:45.377Z,17.63
2019-04-09T14:58:15.031Z,17.53
2019-04-09T15:00:44.224Z,18.20
2019-04-09T15:03:21.651Z,15.70
2019-04-09T15:05:45.281Z,16.13
2019-04-09T15:08:15.034Z,16.83
2019-04-09T15:10:44.544Z,16.90
2019-04-09T15:13:13.522Z,17.37
2019-04-09T15:15:42.770Z,16.40
2019-04-09T15:18:11.477Z,16.20
2019-04-09T15:20:41.589Z,16.67
2019-04-09T15:23:09.969Z,18.20
2019-04-09T15:25:39.871Z,20.80
2019-04-09T15:28:09.106Z,20.63
2019-04-09T15:30:37.638Z,19.30
2019-04-09T15:33:06.686Z,20.90
2019-04-09T15:35:35.252Z,21.00
2019-04-09T15:38:03.673Z,20.27
2019-04-09T15:40:33.471Z,21.67
2019-04-09T15:43:02.827Z,21.80
2019-04-09T15:45:31.376Z,20.93
2019-04-09T15:48:00.953Z,20.70
2019-04-09T15:50:30.555Z,20.50
2019-04-09T15:52:59.115Z,18.70
2019-04-09T15:55:27.604Z,20.40
2019-04-09T15:57:56.458Z,19.20
2019-04-09T16:00:24.994Z,21.57
2019-04-09T16:02:54.136Z,20.10
2019-04-09T16:05:24.401Z,21.80
2019-04-09T16:07:53.339Z,22.60
2019-04-09T16:10:23.526Z,20.67
2019-04-09T16:12:51.966Z,21.20
2019-04-09T16:15:21.106Z,21.27
2019-04-09T16:17:50.228Z,21.50
2019-04-09T16:20:19.055Z,23.60
2019-04-09T16:22:47.495Z,24.00
2019-04-09T16:25:16.362Z,22.33
2019-04-09T16:27:46.419Z,23.90
2019-04-09T16:30:17.321Z,21.30
2019-04-09T16:32:58.753Z,23.07
2019-04-09T16:35:16.908Z,23.63
2019-04-09T16:37:45.754Z,23.67
2019-04-09T16:40:14.963Z,22.03
2019-04-09T16:42:45.232Z,22.27
2019-04-09T16:45:14.187Z,22.97
2019-04-09T16:47:44.865Z,21.30
2019-04-09T16:50:14.628Z,22.97
2019-04-09T16:52:44.474Z,23.43
2019-04-09T16:55:14.709Z,24.27
2019-04-09T16:57:55.390Z,22.77
2019-04-09T17:00:13.799Z,24.93
2019-04-09T17:02:42.715Z,24.03
2019-04-09T17:05:11.299Z,23.80
2019-04-09T17:07:39.976Z,22.43
2019-04-09T17:10:08.576Z,22.73
2019-04-09T17:12:37.113Z,22.47
2019-04-09T17:15:09.509Z,23.70
2019-04-09T17:17:38.324Z,22.20
2019-04-09T17:20:10.239Z,21.50
2019-04-09T17:22:39.177Z,23.87
2019-04-09T17:25:07.974Z,22.57
2019-04-09T17:27:37.115Z,25.30
2019-04-09T17:30:07.997Z,23.63
2019-04-09T17:32:38.336Z,23.80
2019-04-09T17:35:08.690Z,21.70
2019-04-09T17:37:37.878Z,22.63
2019-04-09T17:40:11.030Z,23.77
2019-04-09T17:42:38.388Z,21.63
2019-04-09T17:45:11.721Z,24.30
2019-04-09T17:47:40.140Z,24.73
2019-04-09T17:50:09.551Z,22.63
2019-04-09T17:52:39.145Z,22.00
2019-04-09T17:55:09.069Z,20.13
2019-04-09T17:57:38.005Z,19.90
2019-04-09T18:00:13.736Z,20.97
2019-04-09T18:02:42.713Z,20.20
2019-04-09T18:05:12.566Z,20.60
2019-04-09T18:07:41.086Z,19.00
2019-04-09T18:10:09.947Z,19.80
2019-04-09T18:12:39.070Z,19.60
2019-04-09T18:15:09.911Z,18.90
2019-04-09T18:17:38.344Z,20.57
2019-04-09T18:20:07.832Z,21.17
2019-04-09T18:22:36.353Z,19.07
2019-04-09T18:25:05.960Z,20.93
2019-04-09T18:27:34.514Z,22.00
2019-04-09T18:30:04.255Z,22.90
2019-04-09T18:32:33.699Z,25.20
2019-04-09T18:35:04.800Z,19.83
2019-04-09T18:37:32.554Z,20.67
2019-04-09T18:40:01.143Z,18.20
2019-04-09T18:42:30.830Z,18.23
2019-04-09T18:44:59.631Z,19.23
2019-04-09T18:47:30.007Z,19.67
2019-04-09T18:49:58.434Z,26.23
2019-04-09T18:52:27.161Z,23.67
2019-04-09T18:54:55.868Z,21.30
2019-04-09T18:57:24.247Z,19.77
2019-04-09T18:59:53.560Z,21.37
2019-04-09T19:02:22.919Z,22.07
2019-04-09T19:05:02.740Z,24.63
2019-04-09T19:07:22.098Z,23.27
2019-04-09T19:09:51.213Z,22.73
2019-04-09T19:12:20.521Z,23.80
2019-04-09T19:14:49.030Z,24.80
2019-04-09T19:17:17.451Z,27.10
2019-04-09T19:19:46.811Z,22.80
2019-04-09T19:22:15.671Z,24.60
2019-04-09T19:24:44.181Z,22.60
2019-04-09T19:27:12.628Z,22.33
2019-04-09T19:29:41.316Z,24.00
2019-04-09T19:32:11.075Z,25.10
2019-04-09T19:34:39.662Z,23.97
2019-04-09T19:37:08.548Z,23.13
2019-04-09T19:39:39.323Z,23.13
2019-04-09T19:42:12.751Z,25.90
2019-04-09T19:44:38.935Z,24.40
2019-04-09T19:47:07.705Z,24.43
2019-04-09T19:49:38.036Z,22.80
2019-04-09T19:52:06.499Z,23.50
2019-04-09T19:54:35.681Z,27.33
2019-04-09T19:57:04.181Z,25.13
2019-04-09T19:59:32.727Z,28.10
2019-04-09T20:02:02.715Z,25.20
2019-04-09T20:04:31.276Z,27.50
2019-04-09T20:06:59.691Z,27.97
2019-04-09T20:09:29.474Z,24.87
2019-04-09T20:11:58.621Z,27.03
2019-04-09T20:14:28.907Z,23.60
2019-04-09T20:16:57.367Z,25.00
2019-04-09T20:19:26.965Z,24.67
2019-04-09T20:21:56.899Z,25.07
2019-04-09T20:24:25.443Z,26.33
2019-04-09T20:26:54.840Z,24.30
2019-04-09T20:29:23.663Z,25.50
2019-04-09T20:31:52.103Z,24.47
2019-04-09T20:34:20.770Z,22.77
2019-04-09T20:36:49.388Z,24.97
2019-04-09T20:39:29.891Z,23.47
2019-04-09T20:41:55.114Z,25.17
2019-04-09T20:44:23.586Z,24.43
2019-04-09T20:46:52.003Z,25.60
2019-04-09T20:49:20.411Z,26.07
2019-04-09T20:51:48.813Z,25.10
2019-04-09T20:54:18.877Z,25.70
2019-04-09T20:56:47.542Z,26.50
2019-04-09T20:59:37.228Z,25.50
2019-04-09T21:01:58.169Z,25.67
2019-04-09T21:04:27.181Z,24.67
2019-04-09T21:06:55.677Z,24.53
2019-04-09T21:09:24.335Z,25.80
2019-04-09T21:11:52.946Z,24.80
2019-04-09T21:14:22.268Z,24.90
2019-04-09T21:16:51.121Z,24.67
2019-04-09T21:19:19.563Z,24.70
2019-04-09T21:21:47.976Z,24.85
2019-04-09T21:24:17.346Z,24.12
2019-04-09T21:26:51.782Z,25.65
2019-04-09T21:29:20.438Z,27.70
2019-04-09T21:31:49.587Z,25.52
2019-04-09T21:34:18.066Z,26.60
2019-04-09T21:36:47.150Z,26.65
2019-04-09T21:39:16.606Z,26.42
2019-04-09T21:41:45.118Z,27.25
2019-04-09T21:44:14.333Z,25.85
2019-04-09T21:46:43.706Z,23.42
2019-04-09T21:49:12.317Z,26.33
2019-04-09T21:51:41.903Z,23.10
2019-04-09T21:54:15.503Z,24.60
2019-04-09T21:56:44.843Z,26.00
2019-04-09T21:59:14.227Z,25.30
2019-04-09T22:01:45.327Z,24.57
2019-04-09T22:04:14.860Z,24.52
2019-04-09T22:06:44.057Z,24.50
2019-04-09T22:09:12.928Z,24.43
2019-04-09T22:11:41.401Z,23.05
2019-04-09T22:14:10.214Z,25.60
2019-04-09T22:16:39.134Z,24.72
2019-04-09T22:19:08.299Z,24.63
2019-04-09T22:21:36.975Z,23.62
2019-04-09T22:24:05.661Z,22.90
2019-04-09T22:26:34.134Z,24.50
2019-04-09T22:29:03.021Z,24.80
2019-04-09T22:31:34.317Z,23.35
2019-04-09T22:34:01.755Z,24.02
2019-04-09T22:36:37.167Z,25.52
2019-04-09T22:39:00.305Z,25.08
2019-04-09T22:41:29.134Z,22.98
2019-04-09T22:43:57.658Z,23.00
2019-04-09T22:46:26.487Z,22.00
2019-04-09T22:48:55.101Z,23.30
2019-04-09T22:51:23.493Z,24.60
2019-04-09T22:53:52.713Z,23.18
2019-04-09T22:56:21.346Z,22.48
2019-04-09T22:58:50.021Z,22.25
2019-04-09T23:01:32.797Z,24.25
2019-04-09T23:04:05.577Z,25.55
2019-04-09T23:06:49.155Z,25.10
2019-04-09T23:09:16.454Z,23.92
2019-04-09T23:11:47.522Z,23.92
2019-04-09T23:14:16.569Z,25.50
2019-04-09T23:16:45.114Z,25.65
2019-04-09T23:19:13.521Z,23.50
2019-04-09T23:21:42.174Z,23.10
2019-04-09T23:24:11.297Z,25.12
2019-04-09T23:26:39.782Z,26.05
2019-04-09T23:29:08.737Z,24.07
2019-04-09T23:31:37.181Z,24.05
2019-04-09T23:34:06.039Z,24.35
2019-04-09T23:36:34.866Z,24.72
2019-04-09T23:39:04.226Z,23.70
2019-04-09T23:41:32.682Z,23.27
2019-04-09T23:44:01.095Z,24.77
2019-04-09T23:46:29.679Z,26.00
2019-04-09T23:48:58.902Z,24.05
2019-04-09T23:51:27.743Z,24.72
2019-04-09T23:53:57.190Z,25.52
2019-04-09T23:56:25.737Z,24.50
2019-04-09T23:58:54.150Z,25.20
